createdAt,value
2023-03-16T00:00:28.361Z,13.38
2023-03-16T00:05:31.108Z,13.65
2023-03-16T00:10:33.870Z,16.07
2023-03-16T00:15:36.563Z,14.55
2023-03-16T00:20:39.202Z,13.33
2023-03-16T00:25:42.826Z,12.93
2023-03-16T00:30:47.829Z,12.20
2023-03-16T00:35:51.588Z,12.80
2023-03-16T00:40:54.165Z,12.40
2023-03-16T00:46:06.924Z,12.47
2023-03-16T00:51:13.209Z,12.57
2023-03-16T00:56:16.803Z,10.68
2023-03-16T01:01:21.078Z,12.90
2023-03-16T01:06:24.050Z,11.55
2023-03-16T01:11:26.734Z,10.40
2023-03-16T01:16:29.990Z,10.75
2023-03-16T01:21:34.231Z,11.93
2023-03-16T01:26:37.222Z,12.63
2023-03-16T01:31:40.203Z,15.02
2023-03-16T01:36:46.684Z,14.23
2023-03-16T01:41:49.892Z,12.60
2023-03-16T01:46:52.767Z,11.80
2023-03-16T01:52:07.901Z,13.00
2023-03-16T01:57:32.897Z,13.02
2023-03-16T02:02:36.044Z,14.37
2023-03-16T02:07:45.452Z,11.00
2023-03-16T02:12:48.333Z,14.23
2023-03-16T02:17:51.866Z,15.00
2023-03-16T02:22:56.670Z,9.75
2023-03-16T02:28:21.556Z,11.67
2023-03-16T02:33:25.612Z,10.52
2023-03-16T02:38:28.452Z,10.77
2023-03-16T02:43:35.214Z,13.10
2023-03-16T02:49:12.597Z,10.35
2023-03-16T02:54:15.460Z,11.00
2023-03-16T02:59:18.581Z,10.52
2023-03-16T03:04:23.865Z,12.57
2023-03-16T03:09:26.493Z,10.67
2023-03-16T03:14:30.076Z,9.25
2023-03-16T03:19:34.385Z,11.50
2023-03-16T03:24:37.179Z,11.80
2023-03-16T03:29:40.007Z,7.07
2023-03-16T03:34:42.818Z,10.33
2023-03-16T03:39:45.885Z,9.38
2023-03-16T03:44:49.204Z,11.27
2023-03-16T03:49:52.344Z,11.35
2023-03-16T03:54:55.034Z,9.70
2023-03-16T03:59:57.854Z,12.20
2023-03-16T04:05:00.583Z,11.15
2023-03-16T04:10:07.044Z,9.47
2023-03-16T04:15:14.032Z,11.63
2023-03-16T04:20:27.255Z,8.73
2023-03-16T04:25:30.824Z,8.43
2023-03-16T04:30:35.573Z,10.18
2023-03-16T04:35:50.141Z,9.63
2023-03-16T04:40:53.614Z,10.18
2023-03-16T04:45:59.840Z,10.60
2023-03-16T04:51:06.095Z,8.03
2023-03-16T04:56:18.782Z,9.35
2023-03-16T05:01:25.384Z,8.57
2023-03-16T05:06:32.287Z,7.05
2023-03-16T05:11:38.226Z,7.50
2023-03-16T05:16:44.205Z,8.80
2023-03-16T05:21:47.001Z,11.10
2023-03-16T05:26:49.983Z,8.53
2023-03-16T05:31:54.779Z,10.07
2023-03-16T05:36:59.934Z,10.23
2023-03-16T05:42:02.637Z,9.97
2023-03-16T05:47:17.114Z,8.45
2023-03-16T05:52:25.687Z,9.57
2023-03-16T05:57:30.150Z,7.57
2023-03-16T06:02:34.694Z,8.80
2023-03-16T06:07:37.621Z,7.00
2023-03-16T06:12:41.580Z,9.73
2023-03-16T06:17:44.928Z,9.77
2023-03-16T06:22:47.705Z,7.13
2023-03-16T06:27:50.558Z,10.30
2023-03-16T06:32:53.963Z,8.77
2023-03-16T06:37:56.863Z,9.90
2023-03-16T06:43:12.221Z,9.57
2023-03-16T06:48:15.090Z,10.82
2023-03-16T06:53:19.218Z,9.43
2023-03-16T06:58:22.421Z,10.00
2023-03-16T07:03:25.587Z,12.20
2023-03-16T07:08:34.747Z,5.43
2023-03-16T07:13:38.027Z,12.60
2023-03-16T07:18:44.575Z,6.75
2023-03-16T07:23:50.708Z,6.10
2023-03-16T07:28:59.077Z,13.43
2023-03-16T07:34:02.887Z,12.93
2023-03-16T07:39:14.728Z,12.52
2023-03-16T07:44:18.570Z,10.25
2023-03-16T07:49:24.449Z,10.00
2023-03-16T07:54:29.405Z,12.10
2023-03-16T07:59:32.439Z,10.63
2023-03-16T08:04:36.939Z,7.30
2023-03-16T08:09:41.609Z,11.55
2023-03-16T08:14:46.804Z,12.33
2023-03-16T08:19:57.642Z,10.10
2023-03-16T08:25:00.961Z,10.23
2023-03-16T08:30:11.584Z,7.45
2023-03-16T08:35:18.123Z,10.88
2023-03-16T08:40:22.960Z,10.23
2023-03-16T08:45:26.832Z,9.55
2023-03-16T08:50:30.343Z,9.27
2023-03-16T08:55:33.617Z,6.45
2023-03-16T09:00:36.732Z,11.02
2023-03-16T09:05:39.627Z,9.50
2023-03-16T09:10:42.685Z,10.82
2023-03-16T09:15:45.840Z,7.07
2023-03-16T09:20:48.609Z,8.23
2023-03-16T09:25:51.363Z,7.45
2023-03-16T09:30:57.819Z,7.23
2023-03-16T09:36:00.951Z,6.72
2023-03-16T09:41:09.268Z,5.80
2023-03-16T09:46:30.884Z,5.85
2023-03-16T09:51:45.034Z,5.88
2023-03-16T09:56:50.581Z,6.97
2023-03-16T10:02:06.346Z,5.80
2023-03-16T10:07:41.508Z,5.57
2023-03-16T10:12:50.772Z,5.10
2023-03-16T10:18:32.518Z,3.75
2023-03-16T10:23:37.981Z,3.10
2023-03-16T10:28:43.215Z,4.30
2023-03-16T10:33:46.105Z,4.27
2023-03-16T10:38:55.537Z,3.38
2023-03-16T10:44:16.912Z,3.60
2023-03-16T10:49:27.361Z,2.73
2023-03-16T10:54:40.186Z,3.92
2023-03-16T10:59:50.083Z,3.87
2023-03-16T11:04:54.655Z,3.33
2023-03-16T11:09:59.132Z,3.33
2023-03-16T11:15:25.218Z,4.97
2023-03-16T11:20:30.982Z,3.22
2023-03-16T11:25:43.438Z,4.23
2023-03-16T11:31:20.461Z,3.55
2023-03-16T11:36:38.114Z,4.88
2023-03-16T11:41:47.269Z,4.63
2023-03-16T11:47:12.703Z,5.32
2023-03-16T11:52:39.434Z,4.43
2023-03-16T11:58:20.707Z,3.45
2023-03-16T12:03:35.344Z,2.90
2023-03-16T12:09:14.888Z,2.87
2023-03-16T12:14:24.632Z,3.28
2023-03-16T12:19:42.234Z,3.90
2023-03-16T12:24:47.290Z,3.88
2023-03-16T12:30:22.106Z,3.05
2023-03-16T12:36:00.402Z,3.73
2023-03-16T12:41:17.948Z,3.00
2023-03-16T12:46:36.737Z,3.20
2023-03-16T12:51:41.759Z,3.83
2023-03-16T12:56:47.318Z,2.75
2023-03-16T13:02:03.847Z,3.00
2023-03-16T13:07:10.161Z,3.72
2023-03-16T13:12:31.883Z,3.60
2023-03-16T13:17:35.834Z,2.75
2023-03-16T13:22:51.535Z,3.15
2023-03-16T13:27:56.508Z,3.27
2023-03-16T13:33:24.636Z,2.90
2023-03-16T13:38:28.862Z,3.93
2023-03-16T13:43:37.465Z,3.35
2023-03-16T13:48:41.913Z,3.47
2023-03-16T13:53:45.469Z,2.93
2023-03-16T13:58:51.639Z,3.08
2023-03-16T14:03:58.710Z,3.00
2023-03-16T14:09:22.942Z,2.80
2023-03-16T14:14:55.668Z,3.15
2023-03-16T14:20:01.215Z,2.50
2023-03-16T14:25:05.874Z,2.63
2023-03-16T14:30:27.431Z,2.50
2023-03-16T14:35:41.712Z,2.60
2023-03-16T14:40:57.814Z,2.42
2023-03-16T14:46:01.263Z,2.20
2023-03-16T14:51:04.722Z,2.10
2023-03-16T14:56:13.920Z,2.70
2023-03-16T15:01:20.774Z,2.33
2023-03-16T15:06:23.852Z,1.90
2023-03-16T15:11:26.824Z,2.33
2023-03-16T15:16:30.250Z,2.15
2023-03-16T15:21:32.834Z,2.30
2023-03-16T15:26:36.006Z,2.05
2023-03-16T15:31:38.746Z,3.13
2023-03-16T15:36:42.094Z,2.37
2023-03-16T15:41:47.711Z,3.13
2023-03-16T15:46:50.827Z,3.13
2023-03-16T15:51:53.597Z,2.92
2023-03-16T15:56:56.586Z,2.38
2023-03-16T16:01:59.312Z,3.03
2023-03-16T16:07:03.059Z,3.35
2023-03-16T16:12:06.361Z,2.83
2023-03-16T16:17:21.132Z,3.30
2023-03-16T16:22:25.209Z,3.28
2023-03-16T16:27:28.501Z,3.70
2023-03-16T16:32:31.844Z,3.67
2023-03-16T16:37:35.325Z,3.60
2023-03-16T16:42:38.160Z,3.00
2023-03-16T16:47:40.982Z,3.20
2023-03-16T16:52:45.603Z,3.27
2023-03-16T16:57:50.074Z,3.63
2023-03-16T17:02:55.024Z,3.27
2023-03-16T17:08:03.615Z,3.30
2023-03-16T17:13:08.109Z,3.17
2023-03-16T17:18:13.445Z,3.17
2023-03-16T17:23:34.920Z,3.83
2023-03-16T17:28:41.808Z,3.57
2023-03-16T17:33:45.162Z,5.90
2023-03-16T17:38:48.678Z,6.10
2023-03-16T17:43:57.000Z,7.00
2023-03-16T17:49:02.252Z,6.97
2023-03-16T17:54:05.567Z,6.47
2023-03-16T17:59:19.392Z,5.35
2023-03-16T18:04:25.043Z,7.10
2023-03-16T18:09:29.072Z,5.87
2023-03-16T18:14:36.296Z,5.45
2023-03-16T18:19:40.170Z,5.27
2023-03-16T18:24:43.363Z,6.15
2023-03-16T18:29:47.219Z,5.60
2023-03-16T18:34:51.015Z,5.60
2023-03-16T18:39:54.763Z,5.88
2023-03-16T18:44:57.900Z,5.57
2023-03-16T18:50:00.939Z,6.47
2023-03-16T18:55:03.683Z,6.10
2023-03-16T19:00:06.959Z,7.03
2023-03-16T19:05:20.995Z,7.18
2023-03-16T19:10:33.694Z,8.00
2023-03-16T19:15:36.442Z,7.63
2023-03-16T19:20:41.504Z,8.85
2023-03-16T19:25:45.638Z,8.07
2023-03-16T19:30:48.910Z,9.05
2023-03-16T19:35:52.772Z,8.30
2023-03-16T19:40:59.477Z,8.45
2023-03-16T19:46:02.837Z,7.40
2023-03-16T19:51:06.541Z,7.07
2023-03-16T19:56:17.656Z,7.93
2023-03-16T20:01:30.341Z,7.63
2023-03-16T20:06:34.806Z,6.57
2023-03-16T20:11:38.441Z,7.20
2023-03-16T20:16:41.274Z,6.97
2023-03-16T20:21:43.901Z,7.55
2023-03-16T20:26:48.836Z,7.97
2023-03-16T20:31:51.847Z,8.38
2023-03-16T20:36:55.697Z,7.38
2023-03-16T20:41:58.465Z,6.87
2023-03-16T20:47:01.858Z,7.60
2023-03-16T20:52:25.571Z,7.13
2023-03-16T20:57:29.905Z,6.65
2023-03-16T21:02:35.492Z,6.93
2023-03-16T21:07:38.040Z,6.73
2023-03-16T21:12:43.856Z,6.13
2023-03-16T21:17:47.545Z,6.03
2023-03-16T21:22:50.161Z,5.18
2023-03-16T21:27:55.683Z,4.80
2023-03-16T21:33:02.059Z,5.00
2023-03-16T21:38:14.131Z,5.25
2023-03-16T21:43:17.286Z,4.83
2023-03-16T21:48:26.066Z,5.28
2023-03-16T21:53:32.730Z,5.20
2023-03-16T21:58:35.564Z,4.87
2023-03-16T22:03:50.605Z,4.57
2023-03-16T22:08:54.083Z,5.33
2023-03-16T22:13:57.992Z,11.38
2023-03-16T22:19:00.571Z,8.57
2023-03-16T22:24:05.660Z,13.30
2023-03-16T22:29:28.465Z,12.85
2023-03-16T22:34:43.316Z,12.13
2023-03-16T22:39:45.884Z,10.40
2023-03-16T22:44:48.338Z,8.80
2023-03-16T22:49:51.207Z,9.53
2023-03-16T22:54:53.750Z,9.10
2023-03-16T22:59:56.799Z,7.97
2023-03-16T23:04:59.473Z,8.55
2023-03-16T23:10:02.587Z,7.15
2023-03-16T23:15:24.105Z,7.57
2023-03-16T23:20:32.090Z,7.32
2023-03-16T23:25:35.691Z,7.53
2023-03-16T23:30:38.937Z,9.27
2023-03-16T23:35:42.054Z,9.07
2023-03-16T23:40:44.809Z,8.83
2023-03-16T23:45:47.422Z,9.95
2023-03-16T23:50:54.698Z,7.77
2023-03-16T23:55:57.505Z,8.27
